Time;durP1;ratioP1;P1;durP2;ratioP2;P2;SDS_P1;SDS_P2;PMS_P1;PMS_P2;Temp;Humidity;BMP_temperature;BMP_pressure;BME280_temperature;BME280_humidity;BME280_pressure;Samples;Min_cycle;Max_cycle;Signal;HPM_P1;HPM_P2
2021/10/09 00:01:35;;;;;;;2.70;1.70;;;10.20;99.90;;;;;;5025222;28;20180;-70
2021/10/09 00:04:01;;;;;;;1.93;1.83;;;10.20;99.90;;;;;;5024170;28;20218;-70
2021/10/09 00:06:26;;;;;;;3.40;2.33;;;10.20;99.90;;;;;;5012860;28;20172;-70
2021/10/09 00:08:52;;;;;;;1.33;1.27;;;10.30;99.90;;;;;;5011798;28;20199;-69
2021/10/09 00:11:22;;;;;;;3.50;1.97;;;10.30;99.90;;;;;;5013376;28;20279;-70
2021/10/09 00:13:48;;;;;;;1.03;0.93;;;10.30;99.90;;;;;;5013145;28;20234;-71
2021/10/09 00:16:15;;;;;;;1.57;1.47;;;10.30;99.90;;;;;;5012665;28;20906;-70
2021/10/09 00:18:41;;;;;;;3.77;2.97;;;10.30;99.90;;;;;;5013545;28;20214;-70
2021/10/09 00:21:06;;;;;;;1.00;1.00;;;10.30;99.90;;;;;;5032535;28;20411;-69
2021/10/09 00:23:32;;;;;;;0.83;0.60;;;10.20;99.90;;;;;;5032639;28;20225;-70
2021/10/09 00:25:57;;;;;;;3.30;1.33;;;10.20;99.90;;;;;;5014678;28;20261;-70
2021/10/09 00:28:24;;;;;;;2.10;2.00;;;10.10;99.90;;;;;;5011475;28;20196;-70
2021/10/09 00:30:49;;;;;;;1.97;1.13;;;10.00;99.90;;;;;;5022425;28;20172;-70
2021/10/09 00:33:15;;;;;;;3.10;2.90;;;10.00;99.90;;;;;;5049490;28;20563;-70
2021/10/09 00:35:41;;;;;;;3.37;3.03;;;10.00;99.90;;;;;;5029027;28;20176;-70
2021/10/09 00:38:06;;;;;;;1.53;1.43;;;10.00;99.90;;;;;;5013738;28;20174;-70
2021/10/09 00:40:32;;;;;;;0.90;0.90;;;10.10;99.90;;;;;;5023183;28;20416;-70
2021/10/09 00:42:57;;;;;;;1.83;1.67;;;10.10;99.90;;;;;;5031039;28;20171;-70
2021/10/09 00:45:23;;;;;;;2.70;1.33;;;10.10;99.90;;;;;;5031991;28;20179;-70
2021/10/09 00:47:51;;;;;;;1.63;1.23;;;10.10;99.90;;;;;;5031683;28;20170;-70
2021/10/09 00:50:17;;;;;;;6.83;2.93;;;10.10;99.90;;;;;;5030206;28;20517;-70
2021/10/09 00:52:45;;;;;;;2.03;1.37;;;10.10;99.90;;;;;;5030503;28;20421;-70
2021/10/09 00:55:10;;;;;;;2.10;1.40;;;10.10;99.90;;;;;;5031627;28;20785;-70
2021/10/09 00:57:38;;;;;;;4.33;2.03;;;10.10;99.90;;;;;;5032027;28;20418;-70
2021/10/09 01:00:06;;;;;;;1.70;1.57;;;10.10;99.90;;;;;;5032014;28;20203;-70
2021/10/09 01:02:36;;;;;;;1.70;1.60;;;10.10;99.90;;;;;;5032029;28;20410;-70
2021/10/09 01:05:04;;;;;;;4.20;3.43;;;10.10;99.90;;;;;;5030487;28;20445;-70
2021/10/09 01:07:29;;;;;;;2.80;2.50;;;10.10;99.90;;;;;;5028885;28;20422;-69
2021/10/09 01:09:55;;;;;;;2.00;1.80;;;10.10;99.90;;;;;;5031905;28;20596;-70
2021/10/09 01:12:21;;;;;;;1.30;1.20;;;10.10;99.90;;;;;;5031982;28;20170;-70
2021/10/09 01:14:46;;;;;;;1.30;1.17;;;10.10;99.90;;;;;;5031602;28;20199;-69
2021/10/09 01:17:13;;;;;;;8.77;2.10;;;10.00;99.90;;;;;;5032049;28;20164;-70
2021/10/09 01:19:40;;;;;;;1.70;1.60;;;9.90;99.90;;;;;;5028833;28;20422;-70
2021/10/09 01:22:06;;;;;;;1.37;0.97;;;9.80;99.90;;;;;;5016434;28;20423;-70
2021/10/09 01:24:31;;;;;;;2.30;2.20;;;9.80;99.90;;;;;;5012051;28;20852;-68
2021/10/09 01:26:57;;;;;;;1.10;1.00;;;9.70;99.90;;;;;;5011888;28;20439;-68
2021/10/09 01:29:23;;;;;;;0.90;0.60;;;9.70;99.90;;;;;;5012038;28;20192;-69
2021/10/09 01:31:48;;;;;;;1.17;1.07;;;9.60;99.90;;;;;;5012107;28;20168;-71
2021/10/09 01:34:20;;;;;;;3.23;3.13;;;9.60;99.90;;;;;;5020381;28;20202;-68
2021/10/09 01:36:46;;;;;;;2.00;1.90;;;9.60;99.90;;;;;;5016053;28;20164;-68
2021/10/09 01:39:14;;;;;;;1.60;1.50;;;9.50;99.90;;;;;;5012041;28;20781;-68
2021/10/09 01:41:43;;;;;;;1.17;1.03;;;9.50;99.90;;;;;;5012035;28;20404;-68
2021/10/09 01:44:09;;;;;;;4.40;3.03;;;9.50;99.90;;;;;;5010493;28;20431;-69
2021/10/09 01:46:35;;;;;;;3.63;2.23;;;9.50;99.90;;;;;;5011618;28;20407;-68
2021/10/09 01:49:03;;;;;;;2.40;1.90;;;9.40;99.90;;;;;;5011958;28;20451;-68
2021/10/09 01:51:29;;;;;;;0.87;0.87;;;9.40;99.90;;;;;;5012994;28;20514;-68
2021/10/09 01:53:55;;;;;;;0.80;0.60;;;9.30;99.90;;;;;;5011812;28;20469;-70
2021/10/09 01:56:20;;;;;;;1.83;1.73;;;9.30;99.90;;;;;;5011463;28;20458;-68
2021/10/09 01:58:46;;;;;;;3.90;1.37;;;9.30;99.90;;;;;;5017673;28;20203;-68
2021/10/09 02:01:11;;;;;;;0.90;0.90;;;9.20;99.90;;;;;;5034050;28;20171;-70
2021/10/09 02:03:37;;;;;;;1.77;1.67;;;9.10;99.90;;;;;;5034890;28;20207;-70
2021/10/09 02:06:03;;;;;;;1.23;1.13;;;9.10;99.90;;;;;;5034206;28;20198;-70
2021/10/09 02:08:29;;;;;;;2.33;1.83;;;9.00;99.90;;;;;;5035147;28;20445;-71
2021/10/09 02:10:58;;;;;;;4.33;1.53;;;9.00;99.90;;;;;;5033501;28;20176;-69
2021/10/09 02:13:31;;;;;;;2.60;1.30;;;9.00;99.90;;;;;;5035039;28;20758;-70
2021/10/09 02:26:33;;;;;;;3.07;1.57;;;8.80;99.90;;;;;;5014965;28;20400;-69
2021/10/09 02:28:59;;;;;;;3.93;1.33;;;8.80;99.90;;;;;;5026253;28;21002;-68
2021/10/09 02:31:24;;;;;;;0.90;0.70;;;8.70;99.90;;;;;;5034796;28;20246;-69
2021/10/09 02:33:50;;;;;;;1.10;0.90;;;8.70;99.90;;;;;;5034570;28;20183;-68
2021/10/09 02:36:16;;;;;;;4.93;1.97;;;8.60;99.90;;;;;;5034411;28;20170;-70
2021/10/09 02:38:42;;;;;;;1.00;0.83;;;8.60;99.90;;;;;;5026064;28;20754;-68
2021/10/09 02:41:08;;;;;;;2.83;2.73;;;8.50;99.90;;;;;;5024119;28;20171;-69
2021/10/09 02:43:33;;;;;;;0.87;0.70;;;8.50;99.90;;;;;;5034208;28;20446;-69
2021/10/09 02:45:59;;;;;;;1.70;1.60;;;8.50;99.90;;;;;;5034307;28;20518;-69
2021/10/09 02:48:24;;;;;;;0.90;0.70;;;8.40;99.90;;;;;;5034313;28;20196;-70
2021/10/09 02:50:50;;;;;;;1.43;1.33;;;8.40;99.90;;;;;;5034370;28;20540;-70
2021/10/09 02:53:16;;;;;;;3.87;2.20;;;8.40;99.90;;;;;;5016081;28;20196;-69
2021/10/09 02:55:41;;;;;;;0.70;0.50;;;8.40;99.90;;;;;;5012977;28;20177;-69
2021/10/09 02:58:07;;;;;;;1.47;1.37;;;8.40;99.90;;;;;;5014510;28;20263;-70
2021/10/09 03:00:33;;;;;;;2.73;2.17;;;8.40;99.90;;;;;;5014303;28;20173;-70
2021/10/09 03:03:00;;;;;;;6.83;1.97;;;8.40;99.90;;;;;;5020686;28;20183;-70
2021/10/09 03:05:26;;;;;;;2.40;1.63;;;8.30;99.90;;;;;;5024043;28;20848;-70
2021/10/09 03:07:52;;;;;;;0.80;0.70;;;8.40;99.90;;;;;;5014302;28;20881;-70
2021/10/09 03:10:17;;;;;;;1.97;1.33;;;8.30;99.90;;;;;;5013819;28;20411;-70
2021/10/09 03:12:43;;;;;;;2.50;1.27;;;8.30;99.90;;;;;;5014159;28;20537;-70
2021/10/09 03:15:10;;;;;;;1.20;1.10;;;8.30;99.90;;;;;;5013965;28;20193;-71
2021/10/09 03:17:36;;;;;;;1.07;1.00;;;8.30;99.90;;;;;;5014294;28;20168;-71
2021/10/09 03:20:04;;;;;;;1.67;1.57;;;8.30;99.90;;;;;;5025488;28;20422;-70
2021/10/09 03:22:31;;;;;;;2.20;1.53;;;8.20;99.90;;;;;;5033866;28;20414;-70
2021/10/09 03:24:56;;;;;;;0.80;0.70;;;8.20;99.90;;;;;;5033456;28;20418;-70
2021/10/09 03:27:22;;;;;;;0.70;0.53;;;8.10;99.90;;;;;;5033724;28;20915;-70
2021/10/09 03:29:47;;;;;;;3.20;2.90;;;8.10;99.90;;;;;;5033592;28;20191;-69
2021/10/09 03:32:13;;;;;;;1.80;1.00;;;8.00;99.90;;;;;;5031915;28;20173;-69
2021/10/09 03:34:38;;;;;;;1.30;0.70;;;8.10;99.90;;;;;;5032763;28;20187;-69
2021/10/09 03:37:05;;;;;;;2.03;1.60;;;8.00;99.90;;;;;;5032910;28;20182;-70
2021/10/09 03:39:31;;;;;;;0.73;0.60;;;8.00;99.90;;;;;;5032788;28;20640;-69
2021/10/09 03:42:03;;;;;;;1.23;1.13;;;7.90;99.90;;;;;;5033365;28;20403;-71
2021/10/09 03:44:33;;;;;;;1.17;1.03;;;7.90;99.90;;;;;;5031665;28;20447;-71
2021/10/09 03:54:43;;;;;;;1.53;0.77;;;7.90;99.90;;;;;;5021014;28;20210;-71
2021/10/09 03:57:08;;;;;;;2.30;2.10;;;7.80;99.90;;;;;;5032736;28;20430;-70
2021/10/09 03:59:33;;;;;;;6.20;1.47;;;7.80;99.90;;;;;;5033103;28;20167;-70
2021/10/09 04:01:59;;;;;;;0.83;0.83;;;7.80;99.90;;;;;;5031785;28;20172;-69
2021/10/09 04:04:27;;;;;;;0.80;0.70;;;7.80;99.90;;;;;;5032939;28;20546;-70
2021/10/09 04:06:53;;;;;;;2.20;1.30;;;7.70;99.90;;;;;;5015526;28;20584;-70
2021/10/09 04:09:18;;;;;;;0.80;0.80;;;7.70;99.90;;;;;;5020442;28;20450;-70
2021/10/09 04:11:44;;;;;;;1.77;1.67;;;7.70;99.90;;;;;;5019145;28;20206;-70
2021/10/09 04:14:09;;;;;;;0.80;0.60;;;7.70;99.90;;;;;;5013103;28;20184;-70
2021/10/09 04:16:35;;;;;;;0.80;0.77;;;7.70;99.90;;;;;;5012759;28;20172;-70
2021/10/09 04:19:00;;;;;;;1.53;1.43;;;7.60;99.90;;;;;;5013764;28;20168;-71
2021/10/09 04:21:26;;;;;;;2.10;1.53;;;7.70;99.90;;;;;;5012750;28;20172;-71
2021/10/09 04:23:52;;;;;;;2.07;1.80;;;7.80;99.90;;;;;;5012572;28;20196;-71
2021/10/09 04:26:17;;;;;;;2.50;1.73;;;7.70;99.90;;;;;;5020846;28;20184;-71
2021/10/09 04:28:43;;;;;;;1.20;1.00;;;7.70;99.90;;;;;;5032538;28;20282;-71
2021/10/09 04:31:08;;;;;;;2.13;1.30;;;7.80;99.90;;;;;;5029306;28;20633;-71
2021/10/09 04:33:34;;;;;;;2.07;1.67;;;7.80;99.90;;;;;;5032468;28;20669;-72
2021/10/09 04:35:59;;;;;;;2.00;1.90;;;7.80;99.90;;;;;;5032031;28;20171;-71
2021/10/09 04:38:25;;;;;;;1.20;1.00;;;7.80;99.90;;;;;;5031154;28;20269;-71
2021/10/09 04:40:50;;;;;;;0.70;0.50;;;7.80;99.90;;;;;;5014747;28;20262;-72
2021/10/09 04:43:16;;;;;;;1.80;1.60;;;7.80;99.90;;;;;;5012582;28;20267;-72
2021/10/09 04:45:41;;;;;;;1.40;1.30;;;7.80;99.90;;;;;;5012275;28;20258;-70
2021/10/09 04:48:07;;;;;;;5.50;1.53;;;7.70;99.90;;;;;;5012779;28;20187;-71
2021/10/09 04:50:32;;;;;;;7.90;2.97;;;7.70;99.90;;;;;;5020262;28;20168;-70
2021/10/09 04:52:58;;;;;;;2.10;2.00;;;7.70;99.90;;;;;;5032157;28;20540;-71
2021/10/09 04:55:24;;;;;;;6.17;2.50;;;7.80;99.90;;;;;;5031893;28;20354;-71
2021/10/09 04:57:49;;;;;;;0.70;0.60;;;7.70;99.90;;;;;;5021701;28;20596;-71
2021/10/09 05:00:15;;;;;;;3.13;2.93;;;7.70;99.90;;;;;;5012187;28;20202;-71
2021/10/09 05:02:41;;;;;;;2.50;2.40;;;7.70;99.90;;;;;;5011286;28;20210;-71
2021/10/09 05:05:06;;;;;;;0.70;0.60;;;7.70;99.90;;;;;;5012109;28;20673;-71
2021/10/09 05:07:32;;;;;;;0.80;0.70;;;7.70;99.90;;;;;;5012245;28;20210;-71
2021/10/09 05:09:58;;;;;;;1.43;1.33;;;7.70;99.90;;;;;;5015979;28;20171;-71
2021/10/09 05:12:23;;;;;;;2.30;1.07;;;7.60;99.90;;;;;;5032207;28;20637;-71
2021/10/09 05:14:49;;;;;;;1.10;0.73;;;7.60;99.90;;;;;;5023112;28;20254;-71
2021/10/09 05:17:14;;;;;;;2.07;1.73;;;7.70;99.90;;;;;;5012172;28;20545;-71
2021/10/09 05:19:40;;;;;;;0.80;0.60;;;7.60;99.90;;;;;;5010913;28;20204;-71
2021/10/09 05:22:06;;;;;;;1.53;1.43;;;7.60;99.90;;;;;;5021238;28;20183;-70
2021/10/09 05:24:31;;;;;;;2.83;2.63;;;7.60;99.90;;;;;;5031846;28;20180;-70
2021/10/09 05:26:57;;;;;;;6.40;2.10;;;7.60;99.90;;;;;;5030717;28;20533;-70
2021/10/09 05:29:24;;;;;;;2.20;2.10;;;7.50;99.90;;;;;;5029487;28;20164;-72
2021/10/09 05:31:52;;;;;;;9.60;1.43;;;7.50;99.90;;;;;;5031800;28;20951;-72
2021/10/09 05:34:17;;;;;;;1.07;1.00;;;7.50;99.90;;;;;;5033066;28;20442;-72
2021/10/09 05:36:43;;;;;;;1.00;0.90;;;7.50;99.90;;;;;;5025675;28;20443;-72
2021/10/09 05:39:09;;;;;;;3.27;1.13;;;7.50;99.90;;;;;;5014536;28;20195;-72
2021/10/09 05:41:34;;;;;;;0.70;0.50;;;7.50;99.90;;;;;;5014924;28;20164;-71
2021/10/09 05:44:00;;;;;;;0.70;0.50;;;7.50;99.90;;;;;;5024570;28;20187;-72
2021/10/09 05:46:25;;;;;;;0.83;0.73;;;7.50;99.90;;;;;;5032931;28;20583;-72
2021/10/09 05:48:52;;;;;;;1.70;1.37;;;7.40;99.90;;;;;;5035508;28;20200;-72
2021/10/09 05:51:24;;;;;;;2.60;1.63;;;7.50;99.90;;;;;;5034545;28;20724;-70
2021/10/09 05:58:51;;;;;;;2.50;0.80;;;7.50;99.90;;;;;;5033746;28;20608;-72
2021/10/09 06:01:50;;;;;;;0.80;0.80;;;7.50;99.90;;;;;;5035400;28;20407;-72
2021/10/09 06:47:24;;;;;;;1.13;0.83;;;8.00;99.90;;;;;;5014545;28;20403;-71
2021/10/09 07:00:31;;;;;;;6.50;3.30;;;8.30;99.90;;;;;;5014743;28;20442;-72
2021/10/09 07:02:57;;;;;;;0.70;0.50;;;8.40;99.90;;;;;;5014361;28;20396;-71
2021/10/09 07:05:22;;;;;;;2.70;2.60;;;8.60;99.90;;;;;;5014134;28;20598;-71
2021/10/09 07:07:50;;;;;;;1.93;1.10;;;8.70;99.90;;;;;;5034936;28;20208;-70
2021/10/09 07:10:16;;;;;;;1.60;1.50;;;8.80;99.90;;;;;;5015350;28;20183;-72
2021/10/09 07:12:42;;;;;;;1.43;1.33;;;8.90;99.90;;;;;;5033990;28;20402;-70
2021/10/09 07:15:11;;;;;;;3.57;3.37;;;9.00;99.90;;;;;;5031946;28;20445;-71
2021/10/09 07:17:37;;;;;;;2.83;1.80;;;9.20;99.90;;;;;;5033881;28;20175;-73
2021/10/09 07:20:07;;;;;;;9.40;5.13;;;9.30;99.90;;;;;;5017224;28;20462;-71
2021/10/09 07:22:33;;;;;;;2.30;1.13;;;9.50;99.90;;;;;;5014069;28;20164;-72
2021/10/09 07:24:59;;;;;;;3.20;2.53;;;9.60;99.90;;;;;;5013688;28;20517;-71
2021/10/09 07:27:24;;;;;;;2.63;2.30;;;9.80;99.90;;;;;;5014324;28;20850;-71
2021/10/09 07:29:50;;;;;;;1.10;0.83;;;9.90;99.90;;;;;;5015523;28;20485;-71
2021/10/09 07:32:16;;;;;;;2.73;1.50;;;10.00;99.90;;;;;;5012816;28;20272;-72
2021/10/09 07:34:42;;;;;;;2.73;2.60;;;10.10;99.90;;;;;;5013982;28;20266;-70
2021/10/09 07:37:08;;;;;;;1.33;1.23;;;10.20;99.90;;;;;;5012524;28;20176;-71
2021/10/09 07:39:33;;;;;;;2.77;2.57;;;10.30;99.90;;;;;;5013635;28;20490;-70
2021/10/09 07:41:59;;;;;;;4.30;3.90;;;10.30;99.90;;;;;;5012370;28;20251;-71
2021/10/09 07:44:25;;;;;;;1.20;1.10;;;10.40;99.90;;;;;;5014041;28;20184;-71
2021/10/09 07:46:52;;;;;;;1.33;1.20;;;10.50;99.90;;;;;;5013352;28;20804;-72
2021/10/09 07:49:17;;;;;;;1.60;1.50;;;10.60;99.90;;;;;;5013655;28;20889;-69
2021/10/09 07:51:43;;;;;;;3.97;2.77;;;10.70;99.90;;;;;;5013265;28;20403;-70
2021/10/09 07:54:09;;;;;;;8.47;2.47;;;10.70;99.90;;;;;;5017418;28;20529;-71
2021/10/09 07:56:34;;;;;;;3.37;1.10;;;11.00;99.90;;;;;;5031063;28;20653;-73
2021/10/09 07:59:00;;;;;;;5.40;4.63;;;11.40;99.90;;;;;;5032911;28;20195;-72
2021/10/09 08:01:25;;;;;;;1.97;1.87;;;11.60;99.90;;;;;;5032354;28;20615;-72
2021/10/09 08:03:52;;;;;;;2.87;2.63;;;11.80;99.90;;;;;;5029006;28;20195;-72
2021/10/09 08:06:18;;;;;;;2.83;2.63;;;11.90;99.90;;;;;;5012626;28;20181;-71
2021/10/09 08:08:43;;;;;;;4.40;2.30;;;12.30;99.90;;;;;;5012480;28;20411;-72
2021/10/09 08:11:09;;;;;;;1.73;1.60;;;12.30;99.90;;;;;;5012562;28;20414;-70
2021/10/09 08:13:36;;;;;;;3.23;2.93;;;12.60;99.90;;;;;;5012955;28;20436;-70
2021/10/09 08:16:03;;;;;;;7.80;5.07;;;12.60;99.90;;;;;;5012748;28;20168;-69
2021/10/09 08:18:29;;;;;;;9.43;2.70;;;12.40;99.90;;;;;;5013936;28;20815;-71
2021/10/09 08:21:01;;;;;;;7.87;2.97;;;12.60;99.90;;;;;;5012691;28;20477;-71
2021/10/09 08:23:30;;;;;;;3.63;2.80;;;12.80;99.90;;;;;;5012886;28;20425;-72
2021/10/09 08:37:07;;;;;;;3.90;2.90;;;17.30;99.90;;;;;;5012460;28;20430;-72
2021/10/09 08:39:33;;;;;;;9.70;2.90;;;17.70;99.90;;;;;;5012611;28;20464;-72
2021/10/09 08:41:58;;;;;;;3.83;2.27;;;19.30;99.90;;;;;;5012684;28;20929;-72
2021/10/09 08:44:24;;;;;;;6.83;5.10;;;20.00;99.90;;;;;;5013587;28;20195;-73
2021/10/09 08:46:49;;;;;;;4.60;3.00;;;20.70;99.90;;;;;;5030118;28;20250;-72
2021/10/09 08:49:16;;;;;;;3.90;2.87;;;21.80;99.90;;;;;;5030679;28;20183;-73
2021/10/09 08:51:42;;;;;;;3.57;2.30;;;21.90;99.90;;;;;;5031183;28;20168;-71
2021/10/09 08:54:10;;;;;;;12.97;5.50;;;21.70;99.90;;;;;;5012489;28;20442;-70
2021/10/09 08:56:41;;;;;;;3.60;3.30;;;21.80;99.00;;;;;;5010673;28;20430;-70
2021/10/09 08:59:13;;;;;;;3.70;2.93;;;21.60;98.30;;;;;;5014986;28;20486;-70
2021/10/09 09:25:21;;;;;;;4.97;2.13;;;21.30;98.30;;;;;;5026931;28;20419;-72
2021/10/09 09:40:12;;;;;;;3.80;2.00;;;21.50;97.50;;;;;;5031783;28;20477;-70
2021/10/09 09:42:52;;;;;;;4.20;3.07;;;22.10;95.80;;;;;;5030047;28;20418;-70
2021/10/09 09:45:22;;;;;;;2.40;2.30;;;22.50;91.50;;;;;;5024814;28;20853;-71
2021/10/09 09:47:48;;;;;;;3.30;3.10;;;23.10;91.20;;;;;;5013457;28;20800;-71
2021/10/09 09:50:16;;;;;;;3.00;1.40;;;23.40;91.20;;;;;;5022424;28;20434;-72
2021/10/09 09:52:43;;;;;;;2.20;1.83;;;23.00;90.00;;;;;;5013782;28;20247;-71
2021/10/09 09:55:11;;;;;;;2.37;2.20;;;23.60;90.60;;;;;;5013430;28;20469;-72
2021/10/09 09:57:38;;;;;;;3.60;3.40;;;24.50;87.90;;;;;;5012746;28;20450;-71
2021/10/09 10:00:07;;;;;;;3.40;2.20;;;24.90;85.80;;;;;;5011499;28;20808;-71
2021/10/09 10:02:38;;;;;;;3.80;1.77;;;24.00;76.00;;;;;;5024202;28;20429;-72
2021/10/09 10:05:04;;;;;;;4.80;2.67;;;24.70;80.20;;;;;;5023805;28;20526;-71
2021/10/09 10:07:30;;;;;;;2.03;1.93;;;25.00;78.40;;;;;;5018964;28;20430;-72
2021/10/09 10:09:56;;;;;;;2.97;2.50;;;25.60;78.70;;;;;;5028326;28;20437;-71
2021/10/09 10:12:26;;;;;;;1.90;1.70;;;26.00;75.80;;;;;;5024888;28;20430;-70
2021/10/09 10:14:52;;;;;;;2.10;1.80;;;26.80;71.20;;;;;;5015171;28;20501;-71
2021/10/09 10:17:47;;;;;;;6.10;1.90;;;27.10;66.20;;;;;;5012713;28;20443;-72
2021/10/09 10:20:20;;;;;;;2.47;2.00;;;25.90;62.30;;;;;;5017369;28;20470;-71
2021/10/09 10:22:47;;;;;;;3.60;2.20;;;27.10;65.10;;;;;;5030103;28;20495;-72
2021/10/09 10:25:31;;;;;;;2.43;2.07;;;27.20;62.20;;;;;;5034563;28;20422;-72
2021/10/09 10:27:58;;;;;;;2.17;1.80;;;26.20;60.50;;;;;;5028772;28;20433;-70
2021/10/09 10:30:25;;;;;;;3.87;2.87;;;26.90;60.90;;;;;;5027561;28;20461;-69
2021/10/09 10:33:11;;;;;;;7.93;1.90;;;26.90;61.80;;;;;;5017899;28;20419;-72
2021/10/09 10:35:37;;;;;;;5.13;2.50;;;27.40;62.10;;;;;;5017303;28;20419;-70
2021/10/09 10:38:12;;;;;;;3.00;2.80;;;27.10;60.60;;;;;;5027958;28;20989;-71
2021/10/09 10:40:54;;;;;;;3.20;1.80;;;27.10;60.80;;;;;;5014915;28;20163;-70
2021/10/09 10:43:52;;;;;;;3.80;3.20;;;26.90;58.30;;;;;;5030930;28;20446;-73
2021/10/09 10:46:27;;;;;;;3.43;2.53;;;26.60;61.30;;;;;;5031401;28;20430;-69
2021/10/09 10:49:03;;;;;;;2.40;1.30;;;26.90;60.00;;;;;;5018966;28;20416;-71
2021/10/09 10:56:56;;;;;;;4.07;2.70;;;27.50;59.70;;;;;;5030957;28;20441;-72
2021/10/09 10:59:46;;;;;;;1.70;1.23;;;27.60;58.30;;;;;;5023172;28;20451;-72
2021/10/09 11:02:28;;;;;;;2.83;2.17;;;27.40;58.90;;;;;;5018921;28;20418;-72
2021/10/09 11:05:03;;;;;;;2.07;1.97;;;28.00;57.50;;;;;;5033864;28;20410;-71
2021/10/09 11:07:29;;;;;;;2.53;2.13;;;28.10;55.40;;;;;;5022604;28;20415;-72
2021/10/09 11:10:16;;;;;;;5.80;3.20;;;28.80;55.30;;;;;;5025400;28;20434;-71
2021/10/09 11:12:49;;;;;;;1.70;1.60;;;29.60;55.10;;;;;;5031336;28;20418;-72
2021/10/09 11:15:22;;;;;;;2.13;1.93;;;30.10;53.50;;;;;;5025097;28;20453;-72
2021/10/09 11:17:59;;;;;;;3.57;2.50;;;29.70;52.70;;;;;;5023636;28;20433;-73
2021/10/09 11:20:28;;;;;;;2.70;2.47;;;29.90;53.00;;;;;;5026881;28;20497;-72
2021/10/09 11:22:58;;;;;;;6.03;4.23;;;30.30;52.20;;;;;;5018080;28;20465;-71
2021/10/09 11:25:36;;;;;;;4.87;3.23;;;30.70;51.90;;;;;;5032859;28;20461;-71
2021/10/09 11:28:16;;;;;;;2.30;2.10;;;31.10;51.40;;;;;;5026324;28;20455;-72
2021/10/09 11:30:41;;;;;;;5.20;3.13;;;31.90;51.40;;;;;;5022024;28;20434;-72
2021/10/09 11:33:07;;;;;;;2.60;1.83;;;31.90;49.50;;;;;;5032788;28;20410;-72
2021/10/09 11:35:37;;;;;;;3.07;2.70;;;31.70;48.50;;;;;;5027642;28;20199;-72
2021/10/09 11:38:16;;;;;;;4.57;3.07;;;31.40;49.20;;;;;;5014877;28;20223;-71
2021/10/09 11:56:24;;;;;;;2.80;2.50;;;32.50;46.20;;;;;;5029865;28;20445;-72
2021/10/09 11:58:56;;;;;;;4.70;2.60;;;32.40;47.20;;;;;;5026432;28;20520;-71
2021/10/09 12:01:41;;;;;;;3.80;2.83;;;32.30;46.00;;;;;;5017437;28;20176;-72
2021/10/09 12:04:17;;;;;;;2.87;2.33;;;32.10;45.50;;;;;;5013222;28;20497;-72
2021/10/09 12:06:48;;;;;;;5.50;4.67;;;33.10;47.20;;;;;;5021909;28;20783;-73
2021/10/09 12:09:16;;;;;;;3.20;2.90;;;33.50;46.40;;;;;;5012900;28;20990;-72
2021/10/09 12:11:43;;;;;;;2.00;1.90;;;34.00;45.20;;;;;;5018452;28;20430;-72
2021/10/09 12:14:10;;;;;;;2.43;2.23;;;33.60;45.50;;;;;;5026782;28;20529;-72
2021/10/09 12:16:49;;;;;;;2.13;1.97;;;34.40;45.40;;;;;;5049420;28;20547;-72
2021/10/09 12:19:25;;;;;;;1.70;1.60;;;34.40;44.60;;;;;;5030472;28;20420;-69
2021/10/09 12:21:54;;;;;;;2.57;2.20;;;34.50;43.50;;;;;;5037034;28;20425;-70
2021/10/09 12:24:22;;;;;;;2.30;1.70;;;34.70;44.20;;;;;;5026170;28;20939;-70
2021/10/09 12:27:28;;;;;;;2.50;2.30;;;34.90;43.30;;;;;;5023753;28;20531;-72
2021/10/09 12:30:08;;;;;;;2.37;2.17;;;34.20;42.10;;;;;;5026448;28;20507;-72
2021/10/09 12:32:40;;;;;;;2.80;1.73;;;34.40;43.40;;;;;;5019575;28;20430;-72
2021/10/09 12:35:23;;;;;;;2.70;2.50;;;33.80;42.30;;;;;;5012365;28;20576;-72
2021/10/09 12:37:59;;;;;;;6.40;2.90;;;33.60;43.50;;;;;;5013884;28;20422;-72
2021/10/09 12:40:47;;;;;;;2.20;2.00;;;32.80;43.80;;;;;;5017869;28;20426;-70
2021/10/09 12:43:18;;;;;;;2.10;1.73;;;32.10;43.00;;;;;;5027340;28;20465;-71
2021/10/09 12:45:44;;;;;;;1.80;1.70;;;32.60;44.70;;;;;;5032100;28;20797;-71
2021/10/09 12:48:10;;;;;;;2.20;2.03;;;32.30;44.90;;;;;;5017602;28;20423;-72
2021/10/09 12:50:40;;;;;;;4.97;2.50;;;32.90;44.30;;;;;;5015129;28;20601;-70
2021/10/09 12:53:06;;;;;;;2.63;2.37;;;32.70;44.30;;;;;;5030725;28;20429;-71
2021/10/09 12:55:34;;;;;;;2.83;2.63;;;32.30;43.80;;;;;;5013247;28;20912;-70
2021/10/09 12:58:03;;;;;;;3.00;2.00;;;32.60;43.70;;;;;;5027029;28;20194;-71
2021/10/09 13:00:31;;;;;;;3.37;3.07;;;32.80;44.70;;;;;;5042075;28;20490;-73
2021/10/09 13:02:57;;;;;;;2.90;1.77;;;32.70;45.00;;;;;;5031948;28;20812;-72
2021/10/09 13:05:28;;;;;;;1.97;1.80;;;33.30;45.40;;;;;;5030222;28;20422;-72
2021/10/09 13:07:56;;;;;;;2.80;2.60;;;33.50;44.70;;;;;;5028114;28;20514;-72
2021/10/09 13:10:22;;;;;;;2.60;1.90;;;33.10;43.80;;;;;;5031109;28;20909;-73
2021/10/09 13:12:49;;;;;;;1.63;1.53;;;32.70;44.00;;;;;;5031970;28;20838;-72
2021/10/09 13:15:19;;;;;;;2.50;2.30;;;33.50;44.20;;;;;;5030581;28;20830;-71
2021/10/09 13:17:46;;;;;;;3.13;2.90;;;33.50;43.70;;;;;;5029378;28;20510;-72
2021/10/09 13:20:12;;;;;;;1.90;1.70;;;33.00;42.80;;;;;;5031592;28;20425;-72
2021/10/09 13:22:38;;;;;;;2.63;2.43;;;32.60;44.70;;;;;;5020258;28;20426;-72
2021/10/09 13:25:04;;;;;;;2.07;1.73;;;31.90;45.00;;;;;;5011770;28;20518;-72
2021/10/09 13:27:29;;;;;;;6.70;2.07;;;32.20;44.60;;;;;;5028829;28;20434;-72
2021/10/09 13:29:55;;;;;;;2.17;1.97;;;32.10;45.40;;;;;;5031730;28;21039;-72
2021/10/09 13:32:20;;;;;;;2.50;2.30;;;31.40;45.80;;;;;;5031574;28;20187;-72
2021/10/09 13:34:46;;;;;;;2.17;1.80;;;31.70;46.50;;;;;;5022655;28;20552;-70
2021/10/09 13:37:19;;;;;;;2.53;2.00;;;31.80;45.80;;;;;;5029981;28;20201;-72
2021/10/09 13:39:45;;;;;;;3.40;3.10;;;31.90;46.00;;;;;;5028418;28;20175;-71
2021/10/09 13:42:11;;;;;;;6.43;2.40;;;31.70;45.30;;;;;;5019587;28;20509;-71
2021/10/09 13:44:36;;;;;;;1.73;1.40;;;31.00;46.50;;;;;;5019738;28;20534;-72
2021/10/09 13:47:02;;;;;;;2.67;2.47;;;31.10;46.90;;;;;;5015820;28;20198;-72
2021/10/09 13:49:27;;;;;;;1.70;1.60;;;30.50;47.40;;;;;;5022889;28;20207;-71
2021/10/09 13:51:53;;;;;;;1.60;1.47;;;29.80;48.40;;;;;;5010588;28;20638;-71
2021/10/09 13:54:18;;;;;;;2.60;2.23;;;29.20;48.30;;;;;;5021891;28;20200;-72
2021/10/09 13:56:44;;;;;;;2.93;2.00;;;28.80;50.20;;;;;;5033507;28;20551;-72
2021/10/09 13:59:09;;;;;;;2.37;1.40;;;28.40;49.20;;;;;;5035275;28;20641;-72
2021/10/09 14:01:35;;;;;;;2.93;2.20;;;28.50;48.90;;;;;;5033252;28;20189;-72
2021/10/09 14:04:01;;;;;;;1.87;1.77;;;28.00;50.10;;;;;;5016765;28;20271;-72
2021/10/09 14:06:27;;;;;;;2.47;2.17;;;27.90;50.80;;;;;;5015239;28;20168;-72
2021/10/09 14:08:53;;;;;;;2.30;1.83;;;27.50;51.80;;;;;;5032592;28;20926;-72
2021/10/09 14:11:21;;;;;;;1.97;1.53;;;27.60;51.60;;;;;;5032425;28;20536;-72
2021/10/09 14:13:47;;;;;;;2.17;2.00;;;27.40;51.80;;;;;;5029314;28;20438;-71
2021/10/09 14:16:12;;;;;;;2.37;2.13;;;27.10;50.90;;;;;;5015052;28;20411;-71
2021/10/09 14:18:38;;;;;;;2.80;1.50;;;26.80;51.40;;;;;;5034477;28;20220;-71
2021/10/09 14:21:05;;;;;;;1.73;1.47;;;26.30;52.00;;;;;;5034561;28;20171;-72
2021/10/09 14:23:30;;;;;;;2.10;1.63;;;25.80;52.20;;;;;;5034843;28;20187;-71
2021/10/09 14:25:56;;;;;;;2.20;1.67;;;26.40;54.00;;;;;;5034598;28;20891;-72
2021/10/09 14:28:21;;;;;;;1.60;1.50;;;26.30;53.30;;;;;;5027392;28;20192;-72
2021/10/09 14:30:49;;;;;;;1.47;1.37;;;26.20;54.90;;;;;;5014902;28;20175;-72
2021/10/09 14:33:15;;;;;;;1.93;1.33;;;26.20;54.60;;;;;;5031924;28;20270;-71
2021/10/09 14:35:40;;;;;;;1.87;1.40;;;26.00;53.90;;;;;;5033351;28;20398;-71
2021/10/09 14:38:06;;;;;;;1.97;1.57;;;26.00;53.70;;;;;;5032540;28;20469;-72
2021/10/09 14:40:32;;;;;;;2.47;2.27;;;26.00;53.90;;;;;;5031747;28;20259;-72
2021/10/09 14:42:58;;;;;;;1.50;1.27;;;25.60;54.70;;;;;;5027561;28;20188;-72
2021/10/09 14:45:25;;;;;;;2.20;1.47;;;25.50;54.10;;;;;;5014531;28;20419;-72
2021/10/09 14:48:00;;;;;;;8.03;1.90;;;25.30;54.10;;;;;;5014706;28;20195;-72
2021/10/09 14:53:14;;;;;;;1.27;1.17;;;25.50;53.30;;;;;;5015745;28;20418;-72
2021/10/09 15:17:33;;;;;;;1.63;1.10;;;24.80;55.30;;;;;;5034057;28;20455;-71
2021/10/09 15:19:59;;;;;;;1.67;1.50;;;24.30;56.60;;;;;;5032304;28;20828;-71
2021/10/09 15:22:24;;;;;;;2.70;0.97;;;24.30;56.60;;;;;;5033915;28;20413;-71
2021/10/09 15:24:50;;;;;;;1.50;0.93;;;24.60;56.90;;;;;;5030928;28;20691;-69
2021/10/09 15:27:15;;;;;;;1.90;1.30;;;24.70;57.00;;;;;;5013984;28;20237;-71
2021/10/09 15:29:41;;;;;;;1.40;1.20;;;24.50;56.40;;;;;;5015435;28;20196;-72
2021/10/09 15:32:06;;;;;;;1.10;1.00;;;24.50;56.60;;;;;;5032870;28;20172;-72
2021/10/09 15:34:38;;;;;;;1.20;1.10;;;24.50;56.70;;;;;;5016144;28;20207;-71
2021/10/09 15:37:05;;;;;;;1.17;1.07;;;24.70;55.60;;;;;;5013571;28;20719;-71
2021/10/09 15:39:31;;;;;;;2.20;1.93;;;24.60;56.70;;;;;;5014020;28;20419;-72
2021/10/09 15:41:56;;;;;;;1.20;1.00;;;24.50;57.50;;;;;;5013652;28;20983;-71
2021/10/09 15:44:22;;;;;;;2.03;1.83;;;24.10;56.30;;;;;;5013610;28;20192;-71